createdAt,value
2022-12-18T00:45:32.726Z,180
2022-12-18T01:05:32.605Z,190
2022-12-18T01:25:32.673Z,191
2022-12-18T01:45:32.761Z,191
2022-12-18T03:05:32.951Z,203
2022-12-18T03:25:33.000Z,205
2022-12-18T03:45:33.056Z,212
2022-12-18T04:05:33.115Z,216
2022-12-18T04:25:33.165Z,217
2022-12-18T04:45:33.196Z,221
2022-12-18T05:05:33.273Z,226
2022-12-18T05:25:33.301Z,235
2022-12-18T05:45:33.411Z,241
2022-12-18T06:05:33.411Z,236
2022-12-18T06:25:33.466Z,231
2022-12-18T06:45:33.596Z,233
2022-12-18T07:05:33.749Z,241
2022-12-18T07:25:33.624Z,246
2022-12-18T07:45:33.730Z,249
2022-12-18T08:05:33.705Z,252
2022-12-18T08:25:33.788Z,253
2022-12-18T08:45:33.887Z,251
2022-12-18T09:05:33.879Z,255
2022-12-18T09:25:33.886Z,257
2022-12-18T09:45:33.942Z,258
2022-12-18T10:05:33.997Z,259
2022-12-18T10:25:34.005Z,259
2022-12-18T10:45:34.048Z,262
2022-12-18T11:05:34.179Z,262
2022-12-18T11:25:35.586Z,261
2022-12-18T11:45:34.185Z,257
2022-12-18T12:05:34.218Z,254
2022-12-18T12:25:34.225Z,252
2022-12-18T12:45:34.353Z,244
2022-12-18T13:05:34.342Z,235
2022-12-18T13:25:34.353Z,225
2022-12-18T13:45:34.360Z,216
2022-12-18T14:05:34.406Z,205
2022-12-18T14:25:34.432Z,196
2022-12-18T14:45:39.380Z,182
2022-12-18T15:05:34.505Z,170
2022-12-18T15:25:34.550Z,166
2022-12-18T16:05:34.628Z,159
2022-12-18T16:25:34.647Z,159
2022-12-18T16:45:34.713Z,155
2022-12-18T17:05:34.726Z,158
2022-12-18T17:25:34.784Z,156
2022-12-18T17:45:34.827Z,158
2022-12-18T18:05:34.855Z,153
2022-12-18T18:25:34.975Z,154
2022-12-18T18:45:34.933Z,156
2022-12-18T19:25:38.253Z,155
2022-12-18T19:45:35.091Z,155
2022-12-18T20:05:35.079Z,154
2022-12-18T20:25:35.165Z,151
2022-12-18T20:45:35.190Z,152
2022-12-18T21:05:35.212Z,153
2022-12-18T21:25:35.207Z,153
2022-12-18T21:45:35.256Z,154
2022-12-18T22:05:35.288Z,155
2022-12-18T22:25:35.823Z,155
2022-12-18T22:45:35.715Z,152
2022-12-18T23:05:35.398Z,155
2022-12-18T23:25:35.471Z,155
2022-12-18T23:45:35.581Z,158
